Time;durP1;ratioP1;P1;durP2;ratioP2;P2;SDS_P1;SDS_P2;PMS_P1;PMS_P2;Temp;Humidity;BMP_temperature;BMP_pressure;BME280_temperature;BME280_humidity;BME280_pressure;Samples;Min_cycle;Max_cycle;Signal;HPM_P1;HPM_P2
2021/03/28 00:01:19;;;;;;;153.35;98.40;;;230.70;2252.80;;;;;;4825097;29;20473;-79
2021/03/28 00:03:47;;;;;;;146.05;93.47;;;230.60;2252.80;;;;;;4890392;29;20043;-79
2021/03/28 00:10:25;;;;;;;145.20;91.93;;;230.60;2252.80;;;;;;4974007;28;20620;-81
2021/03/28 00:13:18;;;;;;;154.98;102.82;;;230.60;2252.80;;;;;;4956302;29;20035;-85
2021/03/28 00:16:49;;;;;;;186.60;115.22;;;230.60;2252.80;;;;;;4937564;29;20046;-84
2021/03/28 00:20:18;;;;;;;175.95;107.65;;;230.60;2252.80;;;;;;4880757;29;20093;-85
2021/03/28 00:23:39;;;;;;;148.73;90.47;;;230.40;2252.80;;;;;;4804462;29;20070;-85
2021/03/28 00:30:37;;;;;;;162.55;100.72;;;205.70;2252.80;;;;;;4779990;29;20059;-85
2021/03/28 00:33:51;;;;;;;164.15;100.78;;;205.70;2252.80;;;;;;4786478;30;20117;-84
2021/03/28 00:40:40;;;;;;;209.75;129.48;;;205.70;2252.80;;;;;;4806937;29;20149;-85
2021/03/28 00:43:51;;;;;;;289.77;182.82;;;205.60;2252.80;;;;;;4806906;29;20043;-86
2021/03/28 00:50:25;;;;;;;257.63;164.07;;;205.70;2252.80;;;;;;4807010;29;20118;-84
2021/03/28 00:53:41;;;;;;;178.35;114.38;;;205.70;2252.80;;;;;;4810050;29;20047;-85
2021/03/28 00:57:11;;;;;;;145.25;90.03;;;205.60;2252.80;;;;;;4823491;29;20034;-83
2021/03/28 01:00:38;;;;;;;138.73;88.55;;;205.60;2252.80;;;;;;4879642;29;20123;-85
2021/03/28 01:04:06;;;;;;;139.75;85.55;;;205.60;2252.80;;;;;;4872549;29;20037;-85
2021/03/28 01:07:22;;;;;;;117.20;73.53;;;205.70;2252.80;;;;;;4856386;29;20045;-86
2021/03/28 01:10:31;;;;;;;108.28;70.55;;;205.60;2252.80;;;;;;4842665;29;20094;-84
2021/03/28 01:13:51;;;;;;;112.22;70.63;;;205.60;2252.80;;;;;;4842468;29;20041;-85
2021/03/28 01:16:54;;;;;;;119.70;76.22;;;205.60;2252.80;;;;;;4824482;29;20038;-85
2021/03/28 01:20:03;;;;;;;113.28;71.72;;;205.40;2252.80;;;;;;4832409;29;20045;-85
2021/03/28 01:23:34;;;;;;;115.78;72.32;;;205.40;2252.80;;;;;;4842005;29;20494;-85
2021/03/28 01:27:03;;;;;;;106.90;64.40;;;205.30;2252.80;;;;;;4823294;29;20038;-86
2021/03/28 01:30:18;;;;;;;91.07;60.58;;;205.40;2252.80;;;;;;4833316;29;20116;-85
2021/03/28 01:33:54;;;;;;;92.00;60.13;;;205.40;2252.80;;;;;;4844485;29;20074;-87
2021/03/28 01:36:57;;;;;;;81.70;52.88;;;205.60;2252.80;;;;;;4755327;30;20519;-86
2021/03/28 01:54:40;;;;;;;88.55;52.53;;;205.30;2252.80;;;;;;4752225;30;20056;-86
2021/03/28 01:58:17;;;;;;;107.63;61.67;;;205.30;2252.80;;;;;;4752164;30;20032;-87
2021/03/28 02:08:37;;;;;;;111.00;65.82;;;205.40;2252.80;;;;;;4734202;30;20417;-85
2021/03/28 02:12:07;;;;;;;113.35;69.47;;;205.40;2252.80;;;;;;4734066;30;20041;-84
2021/03/28 02:15:59;;;;;;;150.77;84.57;;;205.30;2252.80;;;;;;4787300;30;20028;-84
2021/03/28 02:19:22;;;;;;;115.85;67.18;;;205.40;2252.80;;;;;;4734042;30;20037;-84
2021/03/28 02:23:05;;;;;;;100.47;58.75;;;205.20;2252.80;;;;;;4734083;30;20040;-85
2021/03/28 02:26:28;;;;;;;75.88;48.05;;;205.20;2252.80;;;;;;4699248;30;20037;-85
2021/03/28 02:33:27;;;;;;;59.95;37.15;;;205.20;2252.80;;;;;;4722645;30;20058;-86
2021/03/28 02:40:47;;;;;;;64.53;40.08;;;205.20;2252.80;;;;;;4751781;30;20505;-87
2021/03/28 02:55:00;;;;;;;67.18;41.17;;;205.20;2252.80;;;;;;4608994;31;20562;-87
2021/03/28 03:05:50;;;;;;;61.97;40.03;;;205.00;2252.80;;;;;;4698713;30;20084;-86
2021/03/28 03:09:29;;;;;;;74.97;46.90;;;205.00;2252.80;;;;;;4698881;30;20537;-86
2021/03/28 03:12:55;;;;;;;103.47;59.15;;;204.90;2252.80;;;;;;4764766;30;20485;-87
2021/03/28 03:16:36;;;;;;;120.78;66.18;;;205.00;2252.80;;;;;;4754005;30;20444;-87
2021/03/28 03:20:05;;;;;;;75.25;45.50;;;205.00;2252.80;;;;;;4804548;29;20051;-84
2021/03/28 03:23:49;;;;;;;83.53;50.03;;;205.10;2252.80;;;;;;4767654;30;20056;-85
2021/03/28 03:40:42;;;;;;;122.72;57.17;;;204.80;2252.80;;;;;;4751101;30;20106;-87
2021/03/28 03:54:20;;;;;;;97.15;55.88;;;205.20;2252.80;;;;;;4917733;29;20028;-86
2021/03/28 04:05:25;;;;;;;79.45;46.78;;;205.10;2252.80;;;;;;4972955;28;20113;-83
2021/03/28 04:15:39;;;;;;;43.45;27.02;;;205.00;2252.80;;;;;;4899390;29;20047;-82
2021/03/28 04:19:20;;;;;;;43.78;26.13;;;205.10;2252.80;;;;;;4908651;29;20030;-84
2021/03/28 04:22:43;;;;;;;43.83;26.60;;;205.00;2252.80;;;;;;4918156;29;20043;-85
2021/03/28 04:42:38;;;;;;;42.92;28.88;;;180.10;2252.80;;;;;;4925563;29;20034;-85
2021/03/28 04:46:03;;;;;;;35.28;22.50;;;204.80;2252.80;;;;;;5022390;28;20423;-85
2021/03/28 04:49:35;;;;;;;52.90;31.90;;;204.90;2252.80;;;;;;5014612;28;20393;-85
2021/03/28 04:59:53;;;;;;;63.95;32.92;;;205.10;2252.80;;;;;;4995533;28;20024;-85
2021/03/28 05:03:24;;;;;;;53.90;32.10;;;205.20;2252.80;;;;;;4994786;28;20030;-86
2021/03/28 05:06:48;;;;;;;58.90;35.63;;;205.10;2252.80;;;;;;4995060;28;20046;-85
2021/03/28 05:13:34;;;;;;;39.15;23.33;;;205.10;2252.80;;;;;;4994952;28;20089;-85
2021/03/28 05:20:24;;;;;;;43.13;29.75;;;205.40;2252.80;;;;;;4994824;28;20089;-87
2021/03/28 05:26:59;;;;;;;58.55;39.13;;;205.40;2252.80;;;;;;5036460;28;20071;-85
2021/03/28 05:30:25;;;;;;;56.85;36.33;;;205.20;2252.80;;;;;;4975888;28;20023;-84
2021/03/28 05:47:32;;;;;;;53.53;32.67;;;205.00;2252.80;;;;;;4974375;28;20038;-85
2021/03/28 05:51:16;;;;;;;50.15;31.85;;;205.00;2252.80;;;;;;4933412;29;20042;-85
2021/03/28 06:04:26;;;;;;;116.28;73.30;;;205.10;2252.80;;;;;;4955121;28;20082;-84
2021/03/28 06:39:15;;;;;;;91.18;57.45;;;205.50;2252.80;;;;;;4955192;29;20560;-85
2021/03/28 06:42:20;;;;;;;91.00;56.78;;;205.60;2252.80;;;;;;4906709;29;20395;-84
2021/03/28 06:45:32;;;;;;;110.45;69.03;;;205.60;2252.80;;;;;;4938373;29;20031;-84
2021/03/28 06:48:36;;;;;;;236.55;125.05;;;205.60;2252.80;;;;;;4938236;29;20380;-86
2021/03/28 06:52:16;;;;;;;312.52;168.13;;;205.50;2252.80;;;;;;4953128;29;20035;-85
2021/03/28 06:55:22;;;;;;;169.95;100.65;;;205.70;2252.80;;;;;;4859847;29;20508;-85
2021/03/28 06:58:38;;;;;;;112.85;72.95;;;205.70;2252.80;;;;;;4873950;29;20119;-84
2021/03/28 07:02:14;;;;;;;113.28;75.65;;;230.40;2252.80;;;;;;4878739;29;20093;-85
2021/03/28 07:06:04;;;;;;;84.38;56.85;;;230.50;2252.80;;;;;;4822830;29;20038;-85
2021/03/28 07:09:08;;;;;;;96.82;66.32;;;230.40;2252.80;;;;;;4805136;29;20043;-85
2021/03/28 07:12:17;;;;;;;88.70;66.55;;;230.40;2252.80;;;;;;4803494;29;20126;-85
2021/03/28 07:15:22;;;;;;;104.53;73.25;;;230.50;2252.80;;;;;;4787218;30;20535;-86
2021/03/28 07:18:40;;;;;;;114.30;75.38;;;230.50;2252.80;;;;;;4786252;29;20081;-85
2021/03/28 07:21:44;;;;;;;105.40;69.63;;;230.60;2252.80;;;;;;4772193;30;20047;-84
2021/03/28 07:25:13;;;;;;;92.03;67.72;;;230.60;2252.80;;;;;;4786765;30;20063;-85
2021/03/28 07:28:20;;;;;;;86.43;55.78;;;230.60;2252.80;;;;;;4768592;30;20050;-85
2021/03/28 07:32:00;;;;;;;124.55;87.88;;;230.60;2252.80;;;;;;4830267;29;20037;-86
2021/03/28 07:35:46;;;;;;;86.20;63.42;;;230.60;2252.80;;;;;;4786734;30;20043;-85
2021/03/28 07:45:47;;;;;;;67.55;46.75;;;230.90;2252.80;;;;;;4768592;30;20085;-86
2021/03/28 07:59:20;;;;;;;64.80;46.53;;;231.10;2252.80;;;;;;4751122;30;20043;-85
2021/03/28 08:49:37;;;;;;;121.53;92.00;;;256.60;2252.80;;;;;;5016541;28;20037;-85
2021/03/28 08:53:40;;;;;;;113.43;86.28;;;256.70;2252.80;;;;;;4986496;28;20064;-87
2021/03/28 08:56:24;;;;;;;107.47;79.10;;;256.80;2252.80;;;;;;4998836;28;20033;-86
2021/03/28 08:59:45;;;;;;;110.95;86.00;;;256.90;2252.80;;;;;;5016240;28;20490;-84
2021/03/28 09:02:55;;;;;;;144.20;107.60;;;281.70;2278.40;;;;;;4974885;28;20495;-87
2021/03/28 09:06:36;;;;;;;161.65;121.78;;;281.70;2278.40;;;;;;4996124;28;20260;-85
2021/03/28 09:09:03;;;;;;;98.25;77.65;;;281.80;2278.40;;;;;;5008076;28;20073;-85
2021/03/28 09:12:34;;;;;;;74.82;58.45;;;281.90;2278.40;;;;;;4999189;28;20522;-86
2021/03/28 09:15:49;;;;;;;47.72;37.92;;;282.00;2278.40;;;;;;5014227;28;20038;-85
2021/03/28 09:18:55;;;;;;;54.38;42.42;;;282.10;2278.40;;;;;;4981489;28;20029;-86
2021/03/28 09:25:17;;;;;;;45.33;35.83;;;282.10;2278.40;;;;;;4955206;28;20023;-86
2021/03/28 09:28:01;;;;;;;39.33;34.33;;;282.10;2278.40;;;;;;4986227;28;20045;-83
2021/03/28 09:31:05;;;;;;;40.97;33.95;;;282.00;2278.40;;;;;;4997930;28;20512;-78
2021/03/28 09:34:08;;;;;;;43.78;34.78;;;282.00;2278.40;;;;;;4994238;28;20037;-85
2021/03/28 09:37:15;;;;;;;40.08;34.55;;;282.00;2278.40;;;;;;4998075;28;20107;-81
2021/03/28 09:40:02;;;;;;;34.00;28.85;;;282.00;2278.40;;;;;;4998054;28;20026;-78
2021/03/28 09:42:52;;;;;;;39.53;33.70;;;282.00;2278.40;;;;;;4997222;28;20154;-74
2021/03/28 09:45:39;;;;;;;48.75;39.70;;;282.00;2278.40;;;;;;4997725;28;20056;-75
2021/03/28 09:48:23;;;;;;;38.58;32.60;;;282.10;2278.40;;;;;;4997510;28;20037;-74
2021/03/28 09:51:26;;;;;;;42.03;31.85;;;282.10;2278.40;;;;;;4997873;28;20029;-75
2021/03/28 09:54:31;;;;;;;37.92;29.77;;;282.20;2278.40;;;;;;5015180;28;20038;-75
2021/03/28 09:57:19;;;;;;;34.40;28.50;;;282.20;2278.40;;;;;;4997735;28;20045;-74
2021/03/28 10:00:22;;;;;;;41.50;31.90;;;282.30;2278.40;;;;;;4998565;28;20025;-74
2021/03/28 10:03:21;;;;;;;30.10;24.55;;;282.50;2278.40;;;;;;5014674;28;20041;-73
2021/03/28 10:05:49;;;;;;;26.55;22.77;;;282.50;2278.40;;;;;;4997517;28;20049;-72
2021/03/28 10:08:18;;;;;;;24.38;19.85;;;307.20;2304.00;;;;;;4997125;28;20390;-75
2021/03/28 10:10:53;;;;;;;28.55;22.65;;;307.20;2304.00;;;;;;5015656;28;20034;-73
2021/03/28 10:13:29;;;;;;;26.23;22.52;;;282.50;2278.40;;;;;;4997594;28;20431;-73
2021/03/28 10:16:17;;;;;;;29.00;23.77;;;282.50;2278.40;;;;;;5014903;28;20026;-74
2021/03/28 10:19:02;;;;;;;31.83;21.40;;;282.50;2278.40;;;;;;5016230;28;20033;-73
2021/03/28 10:21:56;;;;;;;28.38;21.75;;;282.40;2278.40;;;;;;4998636;28;20373;-76
2021/03/28 10:25:04;;;;;;;26.33;23.02;;;282.40;2278.40;;;;;;4997262;28;20030;-74
2021/03/28 10:27:33;;;;;;;32.70;24.15;;;282.40;2278.40;;;;;;4997421;28;20030;-73
2021/03/28 10:30:23;;;;;;;41.95;30.98;;;282.30;2278.40;;;;;;5014441;28;20077;-74
2021/03/28 10:33:08;;;;;;;31.83;26.45;;;282.30;2278.40;;;;;;5014477;28;20021;-73
2021/03/28 10:36:03;;;;;;;33.85;25.42;;;282.40;2278.40;;;;;;4996978;28;20119;-74
2021/03/28 10:38:48;;;;;;;31.95;24.05;;;282.40;2278.40;;;;;;4996740;28;20030;-75
2021/03/28 10:41:40;;;;;;;33.78;21.98;;;282.40;2278.40;;;;;;5014121;28;20485;-75
2021/03/28 10:44:22;;;;;;;46.83;31.95;;;282.40;2278.40;;;;;;4996733;28;20358;-74
2021/03/28 10:47:26;;;;;;;45.47;32.73;;;282.40;2278.40;;;;;;5014146;28;20037;-76
2021/03/28 10:50:29;;;;;;;48.28;33.33;;;282.50;2278.40;;;;;;5014517;28;20030;-75
2021/03/28 10:53:10;;;;;;;52.67;32.27;;;282.50;2278.40;;;;;;5007723;28;20026;-75
2021/03/28 10:56:04;;;;;;;54.17;29.02;;;307.20;2304.00;;;;;;5014496;28;20255;-76
2021/03/28 10:58:53;;;;;;;35.55;22.33;;;307.20;2304.00;;;;;;5012354;28;20025;-75
2021/03/28 11:01:45;;;;;;;32.50;20.70;;;307.30;2304.00;;;;;;4985115;28;20045;-76
2021/03/28 11:04:23;;;;;;;28.77;19.75;;;307.40;2304.00;;;;;;5012977;28;20370;-77
2021/03/28 11:06:49;;;;;;;19.58;13.77;;;307.50;2304.00;;;;;;5012905;28;20047;-76
2021/03/28 11:09:42;;;;;;;28.17;18.17;;;307.70;2304.00;;;;;;5012943;28;20026;-79
2021/03/28 11:12:52;;;;;;;30.23;20.63;;;307.90;2304.00;;;;;;5014573;28;20018;-79
2021/03/28 11:16:00;;;;;;;33.35;24.17;;;308.10;2304.00;;;;;;5013225;28;20119;-77
2021/03/28 11:19:02;;;;;;;25.42;17.98;;;332.90;2329.60;;;;;;5014010;28;20033;-78
2021/03/28 11:22:12;;;;;;;24.48;17.25;;;332.90;2278.40;;;;;;5012806;28;20026;-77
2021/03/28 11:25:15;;;;;;;26.60;18.00;;;333.00;2252.80;;;;;;5012725;28;20427;-77
2021/03/28 11:28:03;;;;;;;17.50;12.40;;;333.20;2278.40;;;;;;5013688;28;20470;-76
2021/03/28 11:31:08;;;;;;;23.55;16.95;;;332.80;2176.00;;;;;;4988687;28;20034;-79
2021/03/28 11:33:39;;;;;;;22.90;15.18;;;333.20;2201.60;;;;;;5012668;28;20026;-80
2021/03/28 11:36:25;;;;;;;24.55;16.25;;;333.30;2252.80;;;;;;5013141;28;20022;-78
2021/03/28 11:39:15;;;;;;;19.48;12.73;;;333.30;2227.20;;;;;;5013693;28;20034;-77
2021/03/28 11:42:23;;;;;;;25.58;20.80;;;333.50;2201.60;;;;;;5012123;28;20136;-79
2021/03/28 11:45:02;;;;;;;20.77;15.60;;;333.50;2124.80;;;;;;4992896;28;20118;-80
2021/03/28 11:48:17;;;;;;;19.75;14.85;;;333.60;2048.00;;;;;;4992711;28;20429;-79
2021/03/28 11:50:41;;;;;;;20.17;14.48;;;333.60;2124.80;;;;;;4992019;28;20042;-81
2021/03/28 11:53:35;;;;;;;31.02;17.92;;;358.80;1945.60;;;;;;4992276;28;20030;-76
2021/03/28 11:56:10;;;;;;;33.53;16.17;;;359.00;1894.40;;;;;;4971295;28;20081;-76
2021/03/28 11:58:39;;;;;;;17.67;11.68;;;359.30;1894.40;;;;;;4992925;28;20030;-80
2021/03/28 12:01:06;;;;;;;39.50;25.50;;;384.00;1868.80;;;;;;4992365;28;20036;-79
2021/03/28 12:03:39;;;;;;;20.88;13.45;;;384.00;2022.40;;;;;;4992832;28;20092;-84
2021/03/28 12:06:18;;;;;;;28.35;17.98;;;359.30;2252.80;;;;;;4995606;28;20096;-83
2021/03/28 12:08:44;;;;;;;30.35;21.45;;;384.00;2252.80;;;;;;4996495;28;20517;-83
2021/03/28 12:11:32;;;;;;;23.63;16.70;;;384.20;2176.00;;;;;;4996555;28;20030;-84
2021/03/28 12:14:14;;;;;;;25.58;16.65;;;409.80;1920.00;;;;;;4997470;28;20349;-84
2021/03/28 12:17:11;;;;;;;29.67;19.30;;;410.50;1740.80;;;;;;4996697;28;20061;-83
2021/03/28 12:19:54;;;;;;;19.83;11.68;;;435.80;1715.20;;;;;;4996750;28;20555;-83
2021/03/28 12:22:33;;;;;;;12.27;8.65;;;436.00;1459.20;;;;;;4997069;28;20105;-81
2021/03/28 12:25:06;;;;;;;9.48;5.53;;;461.00;1536.00;;;;;;4980160;28;20470;-80
2021/03/28 12:28:10;;;;;;;16.42;10.20;;;435.60;1510.40;;;;;;4996823;28;20462;-81
2021/03/28 12:30:40;;;;;;;11.07;7.82;;;435.30;1536.00;;;;;;4971076;28;20053;-81
2021/03/28 12:33:12;;;;;;;7.82;5.43;;;410.30;1612.80;;;;;;4996216;28;20089;-82
2021/03/28 12:35:47;;;;;;;19.83;11.60;;;409.70;1510.40;;;;;;4996107;28;20026;-82
2021/03/28 12:38:29;;;;;;;21.70;14.68;;;410.20;1561.60;;;;;;4996707;28;20053;-82
2021/03/28 12:41:13;;;;;;;14.32;8.98;;;435.20;1484.80;;;;;;4995975;28;20054;-85
2021/03/28 12:43:58;;;;;;;14.68;9.50;;;435.70;1484.80;;;;;;5015573;28;20026;-84
2021/03/28 12:46:27;;;;;;;13.55;9.77;;;435.80;1459.20;;;;;;4980288;28;20046;-82
2021/03/28 12:49:15;;;;;;;14.65;8.57;;;436.00;1433.60;;;;;;4978945;28;20030;-83
2021/03/28 12:51:49;;;;;;;14.95;10.07;;;460.80;1484.80;;;;;;4997294;28;20057;-82
2021/03/28 12:54:26;;;;;;;13.57;11.38;;;460.80;1382.40;;;;;;4997190;28;20458;-81
2021/03/28 12:56:57;;;;;;;11.38;6.53;;;461.10;1331.20;;;;;;4996806;28;20031;-81
2021/03/28 12:59:39;;;;;;;12.70;8.80;;;435.90;1382.40;;;;;;4979469;28;20030;-81
2021/03/28 13:02:21;;;;;;;14.88;7.72;;;436.10;1356.80;;;;;;4979405;28;20073;-82
2021/03/28 13:04:55;;;;;;;12.05;6.45;;;436.00;1433.60;;;;;;4979203;28;20027;-83
2021/03/28 13:07:55;;;;;;;17.40;11.63;;;436.10;1484.80;;;;;;4984796;28;20042;-80
2021/03/28 13:10:31;;;;;;;13.65;9.45;;;461.00;1382.40;;;;;;5004521;28;20037;-80
2021/03/28 13:13:04;;;;;;;18.58;11.95;;;435.70;1331.20;;;;;;5014645;28;20022;-80
2021/03/28 13:15:47;;;;;;;11.45;6.97;;;435.60;1408.00;;;;;;4997587;28;20026;-79
2021/03/28 13:18:40;;;;;;;10.95;7.03;;;435.60;1356.80;;;;;;5015691;28;20025;-77
2021/03/28 13:21:11;;;;;;;;;;;435.20;1408.00;;;;;;4998703;28;20026;-78
2021/03/28 13:23:55;;;;;;;12.10;6.72;;;410.30;1459.20;;;;;;5014445;28;19906;-77
2021/03/28 13:26:37;;;;;;;21.13;12.65;;;410.40;1433.60;;;;;;5013733;28;20073;-79
2021/03/28 13:29:17;;;;;;;145.88;79.45;;;410.50;1408.00;;;;;;5003334;28;20022;-78
2021/03/28 13:32:00;;;;;;;45.22;26.05;;;410.40;1510.40;;;;;;4997390;28;20465;-79
2021/03/28 13:34:57;;;;;;;84.45;66.93;;;410.20;1459.20;;;;;;5000409;28;20071;-80
2021/03/28 13:37:23;;;;;;;37.15;25.00;;;410.00;1536.00;;;;;;5010667;28;20038;-79
2021/03/28 13:40:05;;;;;;;38.33;22.90;;;409.80;1510.40;;;;;;4997314;28;20117;-80
2021/03/28 13:42:58;;;;;;;29.88;17.08;;;409.60;1536.00;;;;;;5016614;28;20107;-80
2021/03/28 13:45:29;;;;;;;;;;;384.90;1510.40;;;;;;5001536;28;20289;-80
2021/03/28 13:48:20;;;;;;;15.88;11.52;;;384.80;1561.60;;;;;;4994316;28;19913;-82
2021/03/28 13:51:18;;;;;;;20.73;13.82;;;384.80;1536.00;;;;;;5014708;28;20630;-82
2021/03/28 13:53:53;;;;;;;23.17;16.45;;;410.00;1536.00;;;;;;4997374;28;20057;-83
2021/03/28 13:56:44;;;;;;;19.42;12.27;;;410.10;1484.80;;;;;;4998219;28;20036;-84
2021/03/28 13:59:10;;;;;;;28.77;18.58;;;410.30;1510.40;;;;;;4998029;28;20446;-80
2021/03/28 14:01:39;;;;;;;20.00;12.55;;;435.30;1484.80;;;;;;4997868;28;20088;-81
2021/03/28 14:04:26;;;;;;;25.33;15.88;;;435.20;1484.80;;;;;;4997586;28;20037;-81
2021/03/28 14:07:11;;;;;;;26.13;18.40;;;410.20;1459.20;;;;;;4999918;28;20037;-81
2021/03/28 14:09:40;;;;;;;18.17;11.07;;;410.00;1510.40;;;;;;5014580;28;20029;-85
2021/03/28 14:12:30;;;;;;;27.75;17.95;;;409.70;1484.80;;;;;;4997978;28;20116;-83
2021/03/28 14:15:15;;;;;;;28.10;18.65;;;410.30;1510.40;;;;;;4997220;28;20085;-88
2021/03/28 14:17:50;;;;;;;37.92;23.42;;;435.40;1484.80;;;;;;4997936;28;20041;-84
2021/03/28 14:20:29;;;;;;;30.20;20.05;;;435.70;1433.60;;;;;;4996562;28;20057;-86
2021/03/28 14:23:20;;;;;;;31.15;21.27;;;435.60;1433.60;;;;;;4997417;28;20026;-80
2021/03/28 14:25:56;;;;;;;26.38;15.98;;;435.30;1510.40;;;;;;4998303;28;20029;-86
2021/03/28 14:28:28;;;;;;;31.75;23.23;;;410.40;1459.20;;;;;;4997150;28;20413;-85
2021/03/28 14:31:09;;;;;;;31.98;19.83;;;435.30;1433.60;;;;;;4997436;28;20034;-85
2021/03/28 14:34:03;;;;;;;18.88;11.82;;;435.70;1408.00;;;;;;4997517;28;20030;-83
2021/03/28 14:37:05;;;;;;;29.48;22.50;;;435.50;1433.60;;;;;;4997102;28;20033;-85
2021/03/28 14:39:58;;;;;;;37.35;30.65;;;435.40;1433.60;;;;;;4997361;28;20068;-85
2021/03/28 14:42:27;;;;;;;29.00;19.73;;;435.60;1459.20;;;;;;4997009;28;20137;-84
2021/03/28 14:45:08;;;;;;;33.85;22.60;;;435.90;1459.20;;;;;;4997864;28;20030;-84
2021/03/28 14:48:05;;;;;;;60.60;33.63;;;436.10;1356.80;;;;;;4996994;28;20069;-83
2021/03/28 14:50:43;;;;;;;29.70;18.63;;;436.10;1305.60;;;;;;4997125;28;20031;-85
2021/03/28 14:53:39;;;;;;;33.33;20.48;;;436.10;1305.60;;;;;;4997337;28;20026;-84
2021/03/28 14:56:27;;;;;;;25.38;16.10;;;436.00;1305.60;;;;;;4995882;28;20377;-83
2021/03/28 14:59:14;;;;;;;23.95;15.30;;;435.40;1305.60;;;;;;5014624;28;20033;-83
2021/03/28 15:02:08;;;;;;;37.65;22.05;;;410.50;1356.80;;;;;;4996256;28;20026;-83
2021/03/28 15:04:54;;;;;;;38.28;21.33;;;410.50;1408.00;;;;;;5014522;28;20022;-83
2021/03/28 15:07:42;;;;;;;46.45;26.98;;;410.50;1356.80;;;;;;4997832;28;20034;-83
2021/03/28 15:10:19;;;;;;;39.30;20.98;;;410.10;1356.80;;;;;;4996403;28;20037;-86
2021/03/28 15:13:05;;;;;;;47.92;25.52;;;409.70;1356.80;;;;;;4997636;28;20103;-86
2021/03/28 15:15:49;;;;;;;38.60;23.35;;;409.60;1433.60;;;;;;4986038;28;20045;-87
2021/03/28 15:18:44;;;;;;;45.78;27.77;;;384.80;1382.40;;;;;;4996778;28;20026;-85
2021/03/28 15:21:45;;;;;;;33.33;19.85;;;384.70;1459.20;;;;;;4996901;28;20033;-89
2021/03/28 15:24:31;;;;;;;37.70;24.00;;;384.60;1433.60;;;;;;4945242;28;20038;-86
2021/03/28 15:27:18;;;;;;;26.35;16.17;;;384.40;1408.00;;;;;;5014316;28;20096;-87
2021/03/28 15:30:04;;;;;;;28.98;18.15;;;384.30;1408.00;;;;;;4996961;28;20044;-83
2021/03/28 15:32:55;;;;;;;34.97;21.23;;;384.20;1433.60;;;;;;4996850;28;20030;-87
2021/03/28 15:35:49;;;;;;;38.58;22.17;;;384.10;1561.60;;;;;;4996937;28;20076;-86
2021/03/28 15:38:45;;;;;;;41.85;25.27;;;384.10;1536.00;;;;;;5008979;28;20039;-84
2021/03/28 15:41:53;;;;;;;46.00;27.95;;;384.10;1536.00;;;;;;5013394;28;20050;-84
2021/03/28 15:44:43;;;;;;;63.03;36.15;;;384.00;1536.00;;;;;;4980792;28;20030;-85
2021/03/28 15:47:20;;;;;;;86.25;50.05;;;384.00;1561.60;;;;;;4998458;28;20401;-84
2021/03/28 15:50:23;;;;;;;75.00;46.28;;;384.00;1587.20;;;;;;4980857;28;20022;-86
2021/03/28 15:53:14;;;;;;;40.60;24.85;;;359.20;1484.80;;;;;;4998388;28;20030;-86
2021/03/28 15:56:09;;;;;;;50.60;35.25;;;359.20;1484.80;;;;;;5017938;28;20084;-84
2021/03/28 15:59:01;;;;;;;63.67;40.67;;;359.20;1484.80;;;;;;4998638;28;20025;-85
2021/03/28 16:01:40;;;;;;;58.20;35.35;;;359.20;1561.60;;;;;;4999924;28;20358;-84
2021/03/28 16:04:18;;;;;;;56.50;37.05;;;359.20;1561.60;;;;;;4998821;28;20030;-85
2021/03/28 16:07:02;;;;;;;78.07;47.92;;;359.10;1664.00;;;;;;4999687;28;20034;-85
2021/03/28 16:09:33;;;;;;;55.85;37.28;;;359.00;1587.20;;;;;;5000160;28;20026;-84
2021/03/28 16:12:40;;;;;;;62.00;41.97;;;359.00;1689.60;;;;;;5017927;28;20458;-84
2021/03/28 16:15:34;;;;;;;116.07;52.67;;;358.90;1792.00;;;;;;4999642;28;20087;-83
2021/03/28 16:18:19;;;;;;;57.78;33.88;;;358.90;1715.20;;;;;;5001076;28;20046;-85
2021/03/28 16:21:10;;;;;;;69.75;40.30;;;358.80;1612.80;;;;;;4998724;28;20045;-85
2021/03/28 16:23:59;;;;;;;54.97;32.63;;;358.80;1561.60;;;;;;4999499;28;20125;-86
2021/03/28 16:26:45;;;;;;;46.55;27.52;;;358.80;1612.80;;;;;;4999961;28;20057;-87
2021/03/28 16:29:39;;;;;;;43.78;24.33;;;358.70;1638.40;;;;;;4999954;28;20485;-87
2021/03/28 16:32:19;;;;;;;48.88;30.83;;;358.70;1612.80;;;;;;4999890;28;20465;-86
2021/03/28 16:35:03;;;;;;;40.15;27.17;;;358.60;1638.40;;;;;;4999461;28;20025;-88
2021/03/28 16:38:01;;;;;;;51.35;31.90;;;358.80;1587.20;;;;;;4999802;28;20026;-87
2021/03/28 16:40:36;;;;;;;67.60;42.92;;;358.50;1612.80;;;;;;4999616;28;20030;-90
2021/03/28 16:43:29;;;;;;;56.05;36.28;;;358.50;1612.80;;;;;;4998892;28;20096;-87
2021/03/28 16:46:19;;;;;;;55.58;36.67;;;358.50;1612.80;;;;;;4999116;28;20030;-87
2021/03/28 16:48:48;;;;;;;56.47;36.58;;;358.50;1587.20;;;;;;5014442;28;20170;-87
2021/03/28 16:51:28;;;;;;;80.85;48.72;;;358.50;1689.60;;;;;;4998711;28;20458;-87
2021/03/28 16:54:24;;;;;;;56.72;39.25;;;358.40;1689.60;;;;;;4999447;28;20026;-87
2021/03/28 16:57:23;;;;;;;61.90;40.72;;;333.70;1612.80;;;;;;4999180;28;20468;-86
2021/03/28 17:00:10;;;;;;;44.28;27.45;;;333.70;1664.00;;;;;;5016820;28;20030;-84
2021/03/28 17:02:42;;;;;;;55.33;38.10;;;333.60;1638.40;;;;;;5014148;28;20469;-80
2021/03/28 17:05:17;;;;;;;65.82;42.35;;;333.60;1638.40;;;;;;5015686;28;20557;-79
2021/03/28 17:08:03;;;;;;;61.53;40.03;;;333.60;1715.20;;;;;;4997755;28;20034;-81
2021/03/28 17:10:40;;;;;;;55.80;38.55;;;333.60;1689.60;;;;;;4995252;28;20022;-81
2021/03/28 17:13:51;;;;;;;29.92;19.52;;;333.60;1689.60;;;;;;4996934;28;20041;-82
2021/03/28 17:16:23;;;;;;;31.98;20.83;;;333.50;1587.20;;;;;;5013709;28;20029;-80
2021/03/28 17:19:12;;;;;;;46.67;30.25;;;333.50;1612.80;;;;;;4997559;28;20057;-84
2021/03/28 17:21:43;;;;;;;28.65;17.60;;;333.50;1715.20;;;;;;4975641;28;20041;-80
2021/03/28 17:24:12;;;;;;;47.45;23.42;;;333.40;1612.80;;;;;;4997814;28;20017;-80
2021/03/28 17:26:47;;;;;;;28.23;16.48;;;333.40;1587.20;;;;;;4997704;28;20067;-78
2021/03/28 17:29:55;;;;;;;31.67;17.33;;;333.40;1587.20;;;;;;4997783;28;20474;-77
2021/03/28 17:32:49;;;;;;;69.15;34.55;;;333.40;1612.80;;;;;;5013867;28;20460;-82
2021/03/28 17:35:20;;;;;;;40.17;24.35;;;333.40;1612.80;;;;;;4998724;28;20213;-79
2021/03/28 17:38:08;;;;;;;303.80;193.20;;;333.40;1612.80;;;;;;4997057;28;20080;-85
2021/03/28 17:40:37;;;;;;;31.10;19.88;;;333.40;1612.80;;;;;;4997135;28;20022;-80
2021/03/28 17:43:04;;;;;;;40.67;27.83;;;333.30;1612.80;;;;;;4980391;28;20489;-78
2021/03/28 17:45:31;;;;;;;47.38;30.27;;;333.20;1715.20;;;;;;4978457;28;20037;-82
2021/03/28 17:48:00;;;;;;;54.10;32.55;;;333.20;1792.00;;;;;;4977218;28;20027;-85
2021/03/28 17:50:33;;;;;;;30.98;18.55;;;333.10;1868.80;;;;;;4976400;28;20031;-82
2021/03/28 17:53:23;;;;;;;39.15;26.42;;;333.00;1817.60;;;;;;4977213;28;20437;-85
2021/03/28 17:56:13;;;;;;;56.63;35.72;;;332.90;1817.60;;;;;;4976581;28;20113;-84
2021/03/28 17:58:49;;;;;;;47.42;30.48;;;332.90;1894.40;;;;;;4978049;28;20380;-84
2021/03/28 18:01:49;;;;;;;27.80;17.25;;;332.90;1945.60;;;;;;4977303;28;20489;-84
2021/03/28 18:04:30;;;;;;;40.70;23.25;;;332.80;1945.60;;;;;;4977972;28;20508;-85
2021/03/28 18:07:07;;;;;;;32.50;21.52;;;308.10;1920.00;;;;;;4978119;28;20027;-83
2021/03/28 18:10:09;;;;;;;40.75;26.67;;;308.10;1945.60;;;;;;4978018;28;20022;-85
2021/03/28 18:12:44;;;;;;;71.65;50.05;;;308.00;1996.80;;;;;;4995460;28;20068;-84
2021/03/28 18:15:19;;;;;;;54.95;38.85;;;308.00;1996.80;;;;;;4977796;28;20492;-86
2021/03/28 18:17:48;;;;;;;52.63;35.30;;;308.00;2099.20;;;;;;4978021;28;20030;-84
2021/03/28 18:20:30;;;;;;;57.10;37.08;;;307.90;2150.40;;;;;;4977305;28;20437;-83
2021/03/28 18:23:00;;;;;;;93.50;63.35;;;307.90;2201.60;;;;;;4977656;28;20104;-85
2021/03/28 18:25:45;;;;;;;99.13;65.90;;;307.80;2124.80;;;;;;4970906;28;20097;-85
2021/03/28 18:28:41;;;;;;;133.40;89.28;;;307.80;2150.40;;;;;;4974896;28;20050;-86
2021/03/28 18:31:32;;;;;;;158.88;108.53;;;307.80;2124.80;;;;;;4967466;28;20114;-84
2021/03/28 18:34:00;;;;;;;144.00;96.05;;;307.70;2124.80;;;;;;4972803;28;20082;-84
2021/03/28 18:36:36;;;;;;;117.47;83.85;;;307.70;2124.80;;;;;;4972873;28;20563;-84